Portada
METAR-TAF:

METAR-TAF

Aeroports :

RAF

Holbeach, Anglaterra

latitud: 52-52N, longitud: 000-09E, altitud: 3 m

Observació

L'informe es va fer fa 1 hora i 11 minuts, a les 16:50 UTC
Vent 22 kt del Oest amb ràfegues de 32 kt
Temperatura 6°C
Humitat 75%
Pressió 994 hPa
Visibilitat 10 km o més
Cel ennuvolat a una alçada de 3000 ft

METAR: EGYH 281650Z 26022G32KT 9999 BKN030 06/02 Q0994 RMK BLU

Hora: 18:01 (18:01 UTC)


TAF: manca

Observacions i pronòstics meteorològics de més de 4000 aeroports (METAR i TAF).

Les estacions disponibles són els punts grocs i vermells al mapa.

Posi el ratolí al punt desitjat per veure el nom de l'estació.

Feu clic per veure les observacions i els pronòstics meteorològics.

Per canviar el mapa: feu clic els botons verds amb una creu de color negre per apropar; al botó verd amb un guió per allunyar la imatge; o en les fletxes verdes per a mapes adjacents.


METAR-TAF: